sensor_id;sensor_type;location;lat;lon;timestamp;pressure;altitude;pressure_sealevel;temperature;humidity
70745;BME280;59284;31.390;34.904;2022-07-29T00:05:20;94953.34;;;21.74;100.00
70745;BME280;59284;31.390;34.904;2022-07-29T00:08:00;94900.28;;;22.09;100.00
70745;BME280;59284;31.390;34.904;2022-07-29T00:11:00;94861.53;;;22.20;100.00
70745;BME280;59284;31.390;34.904;2022-07-29T00:13:47;94850.41;;;22.04;100.00
70745;BME280;59284;31.390;34.904;2022-07-29T00:18:51;94838.41;;;22.10;100.00
70745;BME280;59284;31.390;34.904;2022-07-29T00:39:33;94694.53;;;22.44;100.00
70745;BME280;59284;31.390;34.904;2022-07-29T00:45:02;94659.31;;;22.29;100.00
70745;BME280;59284;31.390;34.904;2022-07-29T00:48:04;94645.03;;;22.41;100.00
70745;BME280;59284;31.390;34.904;2022-07-29T00:50:50;94624.16;;;22.25;100.00
70745;BME280;59284;31.390;34.904;2022-07-29T00:53:39;94623.34;;;22.18;100.00
70745;BME280;59284;31.390;34.904;2022-07-29T00:56:08;94615.19;;;22.37;100.00
70745;BME280;59284;31.390;34.904;2022-07-29T00:58:37;94603.56;;;22.49;100.00
70745;BME280;59284;31.390;34.904;2022-07-29T01:01:25;94590.69;;;22.40;100.00
70745;BME280;59284;31.390;34.904;2022-07-29T01:04:29;94615.97;;;22.41;100.00
70745;BME280;59284;31.390;34.904;2022-07-29T01:07:35;94615.97;;;22.41;100.00
70745;BME280;59284;31.390;34.904;2022-07-29T01:10:31;94594.50;;;22.50;100.00
70745;BME280;59284;31.390;34.904;2022-07-29T01:16:29;94559.03;;;22.54;100.00
70745;BME280;59284;31.390;34.904;2022-07-29T01:49:17;94350.66;;;22.91;100.00
70745;BME280;59284;31.390;34.904;2022-07-29T01:53:05;94347.25;;;22.84;100.00
70745;BME280;59284;31.390;34.904;2022-07-29T01:55:54;94350.59;;;22.63;100.00
70745;BME280;59284;31.390;34.904;2022-07-29T01:58:32;94380.72;;;22.34;100.00
70745;BME280;59284;31.390;34.904;2022-07-29T02:01:21;94392.28;;;22.08;100.00
70745;BME280;59284;31.390;34.904;2022-07-29T02:03:51;94412.44;;;21.76;100.00
70745;BME280;59284;31.390;34.904;2022-07-29T02:24:39;94541.72;;;20.92;100.00
70745;BME280;59284;31.390;34.904;2022-07-29T02:27:28;94568.06;;;20.92;100.00
70745;BME280;59284;31.390;34.904;2022-07-29T02:29:56;94591.22;;;20.76;100.00
70745;BME280;59284;31.390;34.904;2022-07-29T02:32:27;94611.91;;;20.74;100.00
70745;BME280;59284;31.390;34.904;2022-07-29T02:35:31;94647.38;;;20.54;100.00
70745;BME280;59284;31.390;34.904;2022-07-29T02:38:18;94678.69;;;20.59;100.00
70745;BME280;59284;31.390;34.904;2022-07-29T02:41:20;94693.31;;;20.53;100.00
70745;BME280;59284;31.390;34.904;2022-07-29T02:44:11;94709.84;;;20.76;100.00
70745;BME280;59284;31.390;34.904;2022-07-29T02:59:52;94851.16;;;20.58;100.00
70745;BME280;59284;31.390;34.904;2022-07-29T03:02:25;94944.50;;;20.57;100.00
70745;BME280;59284;31.390;34.904;2022-07-29T03:05:38;95008.03;;;20.71;100.00
70745;BME280;59284;31.390;34.904;2022-07-29T03:08:35;95049.03;;;20.68;100.00
70745;BME280;59284;31.390;34.904;2022-07-29T03:29:35;95173.63;;;21.00;100.00
70745;BME280;59284;31.390;34.904;2022-07-29T03:32:05;95181.56;;;21.16;100.00
70745;BME280;59284;31.390;34.904;2022-07-29T03:34:31;95183.16;;;21.20;100.00
70745;BME280;59284;31.390;34.904;2022-07-29T03:37:08;95152.44;;;21.12;100.00
70745;BME280;59284;31.390;34.904;2022-07-29T03:45:17;95141.47;;;21.48;100.00
70745;BME280;59284;31.390;34.904;2022-07-29T03:48:13;95152.31;;;21.62;100.00
70745;BME280;59284;31.390;34.904;2022-07-29T03:50:51;95160.78;;;21.72;100.00
70745;BME280;59284;31.390;34.904;2022-07-29T03:53:19;95149.25;;;21.80;100.00
70745;BME280;59284;31.390;34.904;2022-07-29T03:55:47;95145.31;;;21.89;100.00
70745;BME280;59284;31.390;34.904;2022-07-29T03:58:18;95127.63;;;21.93;100.00
70745;BME280;59284;31.390;34.904;2022-07-29T04:00:44;95131.22;;;22.04;100.00
70745;BME280;59284;31.390;34.904;2022-07-29T04:03:11;95126.16;;;22.18;100.00
70745;BME280;59284;31.390;34.904;2022-07-29T04:05:37;95125.50;;;22.25;100.00
70745;BME280;59284;31.390;34.904;2022-07-29T04:08:03;95108.13;;;22.24;100.00
70745;BME280;59284;31.390;34.904;2022-07-29T04:10:29;95100.91;;;22.21;100.00
70745;BME280;59284;31.390;34.904;2022-07-29T04:12:55;95104.59;;;22.39;100.00
70745;BME280;59284;31.390;34.904;2022-07-29T04:15:23;95098.00;;;22.29;100.00
70745;BME280;59284;31.390;34.904;2022-07-29T04:17:49;95102.78;;;22.20;100.00
70745;BME280;59284;31.390;34.904;2022-07-29T04:20:15;95119.53;;;22.28;100.00
70745;BME280;59284;31.390;34.904;2022-07-29T04:22:41;95117.75;;;22.13;100.00
70745;BME280;59284;31.390;34.904;2022-07-29T04:25:07;95156.16;;;22.07;100.00
70745;BME280;59284;31.390;34.904;2022-07-29T04:27:34;95154.69;;;22.09;100.00
70745;BME280;59284;31.390;34.904;2022-07-29T04:30:00;95194.25;;;22.06;100.00
70745;BME280;59284;31.390;34.904;2022-07-29T04:32:26;95277.97;;;22.21;100.00
70745;BME280;59284;31.390;34.904;2022-07-29T04:34:52;95290.13;;;22.25;100.00
70745;BME280;59284;31.390;34.904;2022-07-29T04:37:18;95268.59;;;22.23;100.00
70745;BME280;59284;31.390;34.904;2022-07-29T04:39:44;95328.31;;;22.28;100.00
70745;BME280;59284;31.390;34.904;2022-07-29T04:42:09;95343.94;;;22.56;100.00
70745;BME280;59284;31.390;34.904;2022-07-29T04:44:37;95341.50;;;22.66;100.00
70745;BME280;59284;31.390;34.904;2022-07-29T04:47:03;95347.16;;;22.65;100.00
70745;BME280;59284;31.390;34.904;2022-07-29T04:49:30;95337.13;;;22.35;100.00
70745;BME280;59284;31.390;34.904;2022-07-29T04:51:56;95360.22;;;22.58;100.00
70745;BME280;59284;31.390;34.904;2022-07-29T04:54:22;95366.84;;;22.67;100.00
70745;BME280;59284;31.390;34.904;2022-07-29T04:56:48;95358.97;;;22.71;100.00
70745;BME280;59284;31.390;34.904;2022-07-29T04:59:15;95347.63;;;22.70;100.00
70745;BME280;59284;31.390;34.904;2022-07-29T05:01:41;95350.59;;;22.88;100.00
70745;BME280;59284;31.390;34.904;2022-07-29T05:04:06;95342.69;;;22.91;100.00
70745;BME280;59284;31.390;34.904;2022-07-29T05:06:32;95324.38;;;23.02;100.00
70745;BME280;59284;31.390;34.904;2022-07-29T05:08:59;95317.69;;;23.12;100.00
70745;BME280;59284;31.390;34.904;2022-07-29T05:11:25;95296.38;;;23.01;100.00
70745;BME280;59284;31.390;34.904;2022-07-29T05:13:50;95291.38;;;23.45;100.00
70745;BME280;59284;31.390;34.904;2022-07-29T05:16:16;95269.41;;;23.44;100.00
70745;BME280;59284;31.390;34.904;2022-07-29T05:18:43;95255.84;;;23.79;100.00
70745;BME280;59284;31.390;34.904;2022-07-29T05:21:09;95205.41;;;23.68;100.00
70745;BME280;59284;31.390;34.904;2022-07-29T05:23:35;95197.41;;;23.98;100.00
70745;BME280;59284;31.390;34.904;2022-07-29T05:26:00;95194.28;;;23.89;100.00
70745;BME280;59284;31.390;34.904;2022-07-29T05:28:26;95193.91;;;23.87;100.00
70745;BME280;59284;31.390;34.904;2022-07-29T05:30:53;95189.72;;;23.86;100.00
70745;BME280;59284;31.390;34.904;2022-07-29T05:33:19;95173.34;;;24.10;100.00
70745;BME280;59284;31.390;34.904;2022-07-29T05:35:45;95089.53;;;24.46;100.00
70745;BME280;59284;31.390;34.904;2022-07-29T05:38:14;95097.69;;;24.23;100.00
70745;BME280;59284;31.390;34.904;2022-07-29T05:40:40;95068.78;;;24.59;100.00
70745;BME280;59284;31.390;34.904;2022-07-29T05:43:05;95030.34;;;25.00;100.00
70745;BME280;59284;31.390;34.904;2022-07-29T05:45:31;95000.72;;;24.87;100.00
70745;BME280;59284;31.390;34.904;2022-07-29T05:47:57;94994.00;;;25.18;100.00
70745;BME280;59284;31.390;34.904;2022-07-29T05:50:23;94942.03;;;25.38;100.00
70745;BME280;59284;31.390;34.904;2022-07-29T05:52:49;94959.38;;;24.83;100.00
70745;BME280;59284;31.390;34.904;2022-07-29T05:55:15;94983.00;;;25.16;100.00
70745;BME280;59284;31.390;34.904;2022-07-29T05:57:41;94955.00;;;25.50;100.00
70745;BME280;59284;31.390;34.904;2022-07-29T06:00:09;94915.91;;;25.54;100.00
70745;BME280;59284;31.390;34.904;2022-07-29T06:02:35;94915.47;;;25.42;100.00
70745;BME280;59284;31.390;34.904;2022-07-29T06:05:02;94909.41;;;25.24;100.00
70745;BME280;59284;31.390;34.904;2022-07-29T06:07:28;94892.00;;;25.61;100.00
70745;BME280;59284;31.390;34.904;2022-07-29T06:09:53;94891.22;;;25.64;100.00
70745;BME280;59284;31.390;34.904;2022-07-29T06:12:19;94898.78;;;25.69;100.00
70745;BME280;59284;31.390;34.904;2022-07-29T06:14:45;94891.53;;;26.16;100.00
70745;BME280;59284;31.390;34.904;2022-07-29T06:17:10;94878.84;;;26.48;100.00
70745;BME280;59284;31.390;34.904;2022-07-29T06:19:37;94866.06;;;26.22;100.00
70745;BME280;59284;31.390;34.904;2022-07-29T06:22:03;94864.44;;;26.45;100.00
70745;BME280;59284;31.390;34.904;2022-07-29T06:24:29;94848.53;;;26.35;100.00
70745;BME280;59284;31.390;34.904;2022-07-29T06:26:55;94827.41;;;26.79;100.00
70745;BME280;59284;31.390;34.904;2022-07-29T06:29:21;94816.34;;;26.84;100.00
70745;BME280;59284;31.390;34.904;2022-07-29T06:31:46;94798.94;;;27.65;100.00
70745;BME280;59284;31.390;34.904;2022-07-29T06:34:13;94775.50;;;27.49;100.00
70745;BME280;59284;31.390;34.904;2022-07-29T06:36:39;94789.69;;;26.91;100.00
70745;BME280;59284;31.390;34.904;2022-07-29T06:39:07;94803.97;;;27.11;100.00
70745;BME280;59284;31.390;34.904;2022-07-29T06:41:33;94769.69;;;27.92;100.00
70745;BME280;59284;31.390;34.904;2022-07-29T06:43:59;94740.63;;;27.37;100.00
70745;BME280;59284;31.390;34.904;2022-07-29T06:46:28;94766.72;;;27.86;100.00
70745;BME280;59284;31.390;34.904;2022-07-29T06:48:54;94796.66;;;27.67;100.00
70745;BME280;59284;31.390;34.904;2022-07-29T06:51:20;94703.72;;;28.29;100.00
70745;BME280;59284;31.390;34.904;2022-07-29T06:53:46;94616.13;;;28.24;100.00
70745;BME280;59284;31.390;34.904;2022-07-29T06:56:12;94522.66;;;28.74;100.00
70745;BME280;59284;31.390;34.904;2022-07-29T06:58:39;94484.03;;;28.79;100.00
70745;BME280;59284;31.390;34.904;2022-07-29T07:01:06;94468.56;;;28.90;100.00
70745;BME280;59284;31.390;34.904;2022-07-29T07:03:32;94480.31;;;29.12;100.00
70745;BME280;59284;31.390;34.904;2022-07-29T07:05:58;94473.75;;;28.97;100.00
70745;BME280;59284;31.390;34.904;2022-07-29T07:08:25;94472.31;;;29.12;100.00
70745;BME280;59284;31.390;34.904;2022-07-29T07:10:52;94469.94;;;29.85;100.00
70745;BME280;59284;31.390;34.904;2022-07-29T07:13:18;94479.72;;;29.56;100.00
70745;BME280;59284;31.390;34.904;2022-07-29T07:15:46;94476.75;;;29.86;100.00
70745;BME280;59284;31.390;34.904;2022-07-29T07:18:14;94479.06;;;29.52;100.00
70745;BME280;59284;31.390;34.904;2022-07-29T07:20:40;94485.91;;;29.37;100.00
70745;BME280;59284;31.390;34.904;2022-07-29T07:23:06;94482.03;;;30.06;100.00
70745;BME280;59284;31.390;34.904;2022-07-29T07:25:32;94484.94;;;30.12;100.00
70745;BME280;59284;31.390;34.904;2022-07-29T07:27:58;94484.16;;;30.72;100.00
70745;BME280;59284;31.390;34.904;2022-07-29T07:30:24;94485.22;;;30.01;100.00
70745;BME280;59284;31.390;34.904;2022-07-29T07:32:50;94489.72;;;30.04;100.00
70745;BME280;59284;31.390;34.904;2022-07-29T07:35:16;94491.84;;;30.70;100.00
70745;BME280;59284;31.390;34.904;2022-07-29T07:37:42;94477.00;;;30.53;100.00
70745;BME280;59284;31.390;34.904;2022-07-29T07:40:12;94490.22;;;30.60;100.00
70745;BME280;59284;31.390;34.904;2022-07-29T07:42:39;94480.44;;;30.09;100.00
70745;BME280;59284;31.390;34.904;2022-07-29T07:45:06;94484.44;;;30.17;100.00
70745;BME280;59284;31.390;34.904;2022-07-29T07:47:35;94466.03;;;31.17;100.00
70745;BME280;59284;31.390;34.904;2022-07-29T07:50:01;94472.72;;;31.26;100.00
70745;BME280;59284;31.390;34.904;2022-07-29T07:52:27;94487.53;;;30.89;100.00
70745;BME280;59284;31.390;34.904;2022-07-29T07:54:53;94484.06;;;30.31;100.00
70745;BME280;59284;31.390;34.904;2022-07-29T07:57:19;94480.75;;;30.55;100.00
70745;BME280;59284;31.390;34.904;2022-07-29T07:59:45;94479.41;;;30.92;100.00
70745;BME280;59284;31.390;34.904;2022-07-29T08:02:10;94476.31;;;30.94;100.00
70745;BME280;59284;31.390;34.904;2022-07-29T08:04:36;94469.69;;;31.11;100.00
70745;BME280;59284;31.390;34.904;2022-07-29T08:07:02;94466.38;;;31.19;100.00
70745;BME280;59284;31.390;34.904;2022-07-29T08:09:28;94470.91;;;31.35;100.00
70745;BME280;59284;31.390;34.904;2022-07-29T08:11:55;94466.63;;;31.50;100.00
70745;BME280;59284;31.390;34.904;2022-07-29T08:14:21;94462.19;;;32.28;100.00
70745;BME280;59284;31.390;34.904;2022-07-29T08:16:47;94463.03;;;31.91;100.00
70745;BME280;59284;31.390;34.904;2022-07-29T08:19:13;94467.69;;;32.81;100.00
70745;BME280;59284;31.390;34.904;2022-07-29T08:21:39;94466.06;;;32.62;100.00
70745;BME280;59284;31.390;34.904;2022-07-29T08:24:05;94461.38;;;32.75;100.00
70745;BME280;59284;31.390;34.904;2022-07-29T08:26:49;94454.38;;;32.77;100.00
70745;BME280;59284;31.390;34.904;2022-07-29T08:29:15;94458.97;;;31.99;100.00
70745;BME280;59284;31.390;34.904;2022-07-29T08:31:42;94452.03;;;32.45;100.00
70745;BME280;59284;31.390;34.904;2022-07-29T08:34:08;94452.81;;;32.45;100.00
70745;BME280;59284;31.390;34.904;2022-07-29T08:36:39;94446.47;;;32.74;100.00
70745;BME280;59284;31.390;34.904;2022-07-29T08:39:11;94448.22;;;32.33;100.00
70745;BME280;59284;31.390;34.904;2022-07-29T08:41:38;94438.22;;;32.68;100.00
70745;BME280;59284;31.390;34.904;2022-07-29T08:44:04;94446.56;;;32.70;100.00
70745;BME280;59284;31.390;34.904;2022-07-29T08:46:30;94438.75;;;33.46;100.00
70745;BME280;59284;31.390;34.904;2022-07-29T08:48:56;94444.84;;;32.54;100.00
70745;BME280;59284;31.390;34.904;2022-07-29T08:51:22;94430.28;;;32.65;100.00
70745;BME280;59284;31.390;34.904;2022-07-29T08:53:49;94434.31;;;33.12;100.00
70745;BME280;59284;31.390;34.904;2022-07-29T08:56:17;94424.38;;;33.31;99.59
70745;BME280;59284;31.390;34.904;2022-07-29T08:58:44;94439.63;;;33.34;99.59
70745;BME280;59284;31.390;34.904;2022-07-29T09:01:12;94438.47;;;33.44;98.64
70745;BME280;59284;31.390;34.904;2022-07-29T09:03:40;94440.03;;;33.54;97.57
70745;BME280;59284;31.390;34.904;2022-07-29T09:06:17;94437.97;;;32.75;98.08
70745;BME280;59284;31.390;34.904;2022-07-29T09:08:45;94437.88;;;33.98;96.65
70745;BME280;59284;31.390;34.904;2022-07-29T09:11:11;94438.41;;;33.66;96.16
70745;BME280;59284;31.390;34.904;2022-07-29T09:13:38;94437.44;;;33.51;93.21
70745;BME280;59284;31.390;34.904;2022-07-29T09:16:04;94434.63;;;34.39;92.51
70745;BME280;59284;31.390;34.904;2022-07-29T09:18:38;94435.94;;;33.41;93.26
70745;BME280;59284;31.390;34.904;2022-07-29T09:21:06;94431.78;;;34.07;92.88
70745;BME280;59284;31.390;34.904;2022-07-29T09:26:39;94445.91;;;33.80;93.59
70745;BME280;59284;31.390;34.904;2022-07-29T09:29:10;94436.59;;;33.54;95.35
70745;BME280;59284;31.390;34.904;2022-07-29T09:31:38;94431.78;;;34.61;92.76
70745;BME280;59284;31.390;34.904;2022-07-29T09:34:05;94438.97;;;34.46;92.84
70745;BME280;59284;31.390;34.904;2022-07-29T09:36:43;94430.91;;;34.28;91.28
70745;BME280;59284;31.390;34.904;2022-07-29T09:39:12;94431.50;;;34.32;90.36
70745;BME280;59284;31.390;34.904;2022-07-29T09:41:46;94439.72;;;34.65;90.65
70745;BME280;59284;31.390;34.904;2022-07-29T09:44:12;94430.88;;;34.73;90.18
70745;BME280;59284;31.390;34.904;2022-07-29T09:49:14;94430.84;;;34.82;86.82
70745;BME280;59284;31.390;34.904;2022-07-29T09:51:40;94439.88;;;34.25;87.95
70745;BME280;59284;31.390;34.904;2022-07-29T09:54:26;94430.88;;;34.73;86.68
70745;BME280;59284;31.390;34.904;2022-07-29T09:56:53;94432.72;;;34.58;87.53
70745;BME280;59284;31.390;34.904;2022-07-29T09:59:20;94432.31;;;35.10;87.12
70745;BME280;59284;31.390;34.904;2022-07-29T10:01:50;94420.63;;;35.13;86.69
70745;BME280;59284;31.390;34.904;2022-07-29T10:04:17;94435.69;;;34.60;88.05
70745;BME280;59284;31.390;34.904;2022-07-29T10:06:58;94422.97;;;35.30;85.50
70745;BME280;59284;31.390;34.904;2022-07-29T10:09:25;94430.84;;;34.91;86.49
70745;BME280;59284;31.390;34.904;2022-07-29T10:12:29;94426.50;;;34.85;85.82
70745;BME280;59284;31.390;34.904;2022-07-29T10:14:55;94430.91;;;34.55;84.54
70745;BME280;59284;31.390;34.904;2022-07-29T10:17:21;94418.00;;;36.55;80.63
70745;BME280;59284;31.390;34.904;2022-07-29T10:19:48;94413.34;;;36.56;79.76
70745;BME280;59284;31.390;34.904;2022-07-29T10:22:14;94417.16;;;35.55;82.21
70745;BME280;59284;31.390;34.904;2022-07-29T10:24:40;94417.78;;;36.59;81.81
70745;BME280;59284;31.390;34.904;2022-07-29T10:27:08;94414.44;;;36.64;79.11
70745;BME280;59284;31.390;34.904;2022-07-29T10:29:34;94410.22;;;37.36;78.69
70745;BME280;59284;31.390;34.904;2022-07-29T10:32:13;94425.31;;;35.93;78.95
70745;BME280;59284;31.390;34.904;2022-07-29T10:40:34;94410.28;;;37.56;80.87
70745;BME280;59284;31.390;34.904;2022-07-29T10:43:29;94411.44;;;37.35;81.60
70745;BME280;59284;31.390;34.904;2022-07-29T10:46:02;94414.78;;;37.79;86.70
70745;BME280;59284;31.390;34.904;2022-07-29T10:48:35;94415.22;;;36.79;96.15
70745;BME280;59284;31.390;34.904;2022-07-29T10:51:14;94411.44;;;37.50;96.12
70745;BME280;59284;31.390;34.904;2022-07-29T10:53:46;94402.72;;;37.60;94.95
70745;BME280;59284;31.390;34.904;2022-07-29T10:56:26;94413.44;;;36.76;98.05
70745;BME280;59284;31.390;34.904;2022-07-29T11:05:15;94395.44;;;37.02;99.00
70745;BME280;59284;31.390;34.904;2022-07-29T11:10:39;94384.56;;;36.29;97.04
70745;BME280;59284;31.390;34.904;2022-07-29T11:13:08;94390.09;;;37.37;94.34
70745;BME280;59284;31.390;34.904;2022-07-29T11:15:57;94400.94;;;38.58;90.98
70745;BME280;59284;31.390;34.904;2022-07-29T11:18:23;94383.75;;;37.40;92.66
70745;BME280;59284;31.390;34.904;2022-07-29T11:20:52;94383.97;;;36.63;92.99
70745;BME280;59284;31.390;34.904;2022-07-29T11:26:19;94385.53;;;37.14;88.89
70745;BME280;59284;31.390;34.904;2022-07-29T11:28:57;94382.63;;;38.73;85.63
70745;BME280;59284;31.390;34.904;2022-07-29T11:31:39;94364.19;;;37.51;85.56
70745;BME280;59284;31.390;34.904;2022-07-29T11:34:32;94374.31;;;38.31;84.97
70745;BME280;59284;31.390;34.904;2022-07-29T11:42:40;94376.91;;;39.70;76.34
70745;BME280;59284;31.390;34.904;2022-07-29T11:45:23;94353.78;;;38.24;78.66
70745;BME280;59284;31.390;34.904;2022-07-29T11:47:58;94360.59;;;39.59;76.50
70745;BME280;59284;31.390;34.904;2022-07-29T11:50:37;94370.66;;;37.73;78.72
70745;BME280;59284;31.390;34.904;2022-07-29T11:53:15;94366.91;;;38.77;74.96
70745;BME280;59284;31.390;34.904;2022-07-29T11:55:43;94368.16;;;37.90;75.95
70745;BME280;59284;31.390;34.904;2022-07-29T11:58:10;94356.66;;;38.41;74.55
70745;BME280;59284;31.390;34.904;2022-07-29T12:00:41;94346.50;;;36.86;77.11
70745;BME280;59284;31.390;34.904;2022-07-29T12:03:11;94363.25;;;37.74;75.73
70745;BME280;59284;31.390;34.904;2022-07-29T12:05:44;94348.91;;;37.48;73.88
70745;BME280;59284;31.390;34.904;2022-07-29T12:08:17;94350.31;;;39.80;69.61
70745;BME280;59284;31.390;34.904;2022-07-29T12:10:51;94350.59;;;39.45;67.61
70745;BME280;59284;31.390;34.904;2022-07-29T12:13:19;94349.28;;;39.29;68.38
70745;BME280;59284;31.390;34.904;2022-07-29T12:15:53;94342.16;;;39.80;67.57
70745;BME280;59284;31.390;34.904;2022-07-29T12:18:19;94355.06;;;38.54;67.03
70745;BME280;59284;31.390;34.904;2022-07-29T12:20:47;94351.31;;;38.72;66.63
70745;BME280;59284;31.390;34.904;2022-07-29T12:23:14;94347.78;;;39.23;65.43
70745;BME280;59284;31.390;34.904;2022-07-29T12:25:44;94346.56;;;37.95;70.16
70745;BME280;59284;31.390;34.904;2022-07-29T12:28:12;94350.28;;;39.01;68.55
70745;BME280;59284;31.390;34.904;2022-07-29T12:30:46;94333.13;;;39.52;65.16
70745;BME280;59284;31.390;34.904;2022-07-29T12:33:41;94347.22;;;39.19;66.15
70745;BME280;59284;31.390;34.904;2022-07-29T12:36:10;94339.34;;;38.58;67.24
70745;BME280;59284;31.390;34.904;2022-07-29T12:38:36;94333.06;;;38.21;67.71
70745;BME280;59284;31.390;34.904;2022-07-29T12:41:02;94345.78;;;38.61;65.21
70745;BME280;59284;31.390;34.904;2022-07-29T12:43:33;94333.06;;;39.41;63.51
70745;BME280;59284;31.390;34.904;2022-07-29T12:46:28;94338.34;;;40.14;61.67
70745;BME280;59284;31.390;34.904;2022-07-29T12:49:04;94325.25;;;40.18;59.42
70745;BME280;59284;31.390;34.904;2022-07-29T12:51:38;94330.47;;;39.63;60.93
70745;BME280;59284;31.390;34.904;2022-07-29T12:54:05;94325.81;;;39.74;62.08
70745;BME280;59284;31.390;34.904;2022-07-29T12:56:32;94334.25;;;41.02;59.77
70745;BME280;59284;31.390;34.904;2022-07-29T12:58:58;94326.00;;;40.24;60.22
70745;BME280;59284;31.390;34.904;2022-07-29T13:01:23;94326.25;;;40.15;58.01
70745;BME280;59284;31.390;34.904;2022-07-29T13:03:57;94325.19;;;39.96;57.72
70745;BME280;59284;31.390;34.904;2022-07-29T13:06:40;94324.00;;;41.58;54.67
70745;BME280;59284;31.390;34.904;2022-07-29T13:11:45;94318.94;;;41.89;49.89
70745;BME280;59284;31.390;34.904;2022-07-29T13:14:14;94325.09;;;40.77;52.03
70745;BME280;59284;31.390;34.904;2022-07-29T13:19:47;94326.00;;;42.20;50.12
70745;BME280;59284;31.390;34.904;2022-07-29T13:22:23;94320.72;;;42.28;50.90
70745;BME280;59284;31.390;34.904;2022-07-29T13:24:58;94318.41;;;40.67;50.67
70745;BME280;59284;31.390;34.904;2022-07-29T13:27:27;94316.56;;;40.03;52.98
70745;BME280;59284;31.390;34.904;2022-07-29T13:29:56;94321.44;;;41.87;51.02
70745;BME280;59284;31.390;34.904;2022-07-29T13:32:23;94319.53;;;39.46;51.81
70745;BME280;59284;31.390;34.904;2022-07-29T13:34:50;94323.50;;;41.54;48.11
70745;BME280;59284;31.390;34.904;2022-07-29T13:37:17;94324.56;;;42.03;46.31
70745;BME280;59284;31.390;34.904;2022-07-29T13:39:43;94316.00;;;39.82;53.35
70745;BME280;59284;31.390;34.904;2022-07-29T13:42:11;94316.44;;;39.70;53.65
70745;BME280;59284;31.390;34.904;2022-07-29T13:44:41;94313.72;;;40.45;50.67
70745;BME280;59284;31.390;34.904;2022-07-29T13:47:08;94311.25;;;40.70;50.23
70745;BME280;59284;31.390;34.904;2022-07-29T13:49:34;94316.34;;;42.14;48.17
70745;BME280;59284;31.390;34.904;2022-07-29T13:52:06;94317.19;;;41.07;50.69
70745;BME280;59284;31.390;34.904;2022-07-29T13:54:32;94307.00;;;40.35;52.48
70745;BME280;59284;31.390;34.904;2022-07-29T13:57:05;94308.47;;;41.42;51.78
70745;BME280;59284;31.390;34.904;2022-07-29T13:59:31;94304.19;;;41.57;52.01
70745;BME280;59284;31.390;34.904;2022-07-29T14:01:57;94301.09;;;40.48;53.88
70745;BME280;59284;31.390;34.904;2022-07-29T14:04:23;94301.34;;;39.15;54.56
70745;BME280;59284;31.390;34.904;2022-07-29T14:06:50;94308.94;;;42.55;50.94
70745;BME280;59284;31.390;34.904;2022-07-29T14:09:16;94315.19;;;41.07;52.62
70745;BME280;59284;31.390;34.904;2022-07-29T14:11:43;94311.00;;;40.95;52.89
70745;BME280;59284;31.390;34.904;2022-07-29T14:14:09;94319.16;;;40.90;52.47
70745;BME280;59284;31.390;34.904;2022-07-29T14:16:36;94316.44;;;41.06;51.91
70745;BME280;59284;31.390;34.904;2022-07-29T14:19:01;94314.88;;;42.07;50.25
70745;BME280;59284;31.390;34.904;2022-07-29T14:21:27;94311.91;;;39.13;57.54
70745;BME280;59284;31.390;34.904;2022-07-29T14:23:53;94306.47;;;39.56;56.01
70745;BME280;59284;31.390;34.904;2022-07-29T14:26:20;94302.84;;;39.16;55.87
70745;BME280;59284;31.390;34.904;2022-07-29T14:29:05;94308.97;;;42.79;51.77
70745;BME280;59284;31.390;34.904;2022-07-29T14:31:32;94308.31;;;38.91;58.10
70745;BME280;59284;31.390;34.904;2022-07-29T14:33:58;94304.22;;;39.06;58.38
70745;BME280;59284;31.390;34.904;2022-07-29T14:36:23;94308.09;;;37.31;61.71
70745;BME280;59284;31.390;34.904;2022-07-29T14:38:49;94308.34;;;38.65;60.94
70745;BME280;59284;31.390;34.904;2022-07-29T14:41:16;94302.84;;;39.22;60.40
70745;BME280;59284;31.390;34.904;2022-07-29T14:43:48;94301.75;;;38.20;61.79
70745;BME280;59284;31.390;34.904;2022-07-29T14:46:16;94293.47;;;38.55;62.54
70745;BME280;59284;31.390;34.904;2022-07-29T14:48:43;94295.31;;;38.38;62.92
70745;BME280;59284;31.390;34.904;2022-07-29T14:51:09;94296.22;;;38.09;62.55
70745;BME280;59284;31.390;34.904;2022-07-29T14:53:35;94292.69;;;37.37;63.21
70745;BME280;59284;31.390;34.904;2022-07-29T14:56:01;94293.22;;;35.89;69.93
70745;BME280;59284;31.390;34.904;2022-07-29T14:58:27;94290.25;;;37.79;66.78
70745;BME280;59284;31.390;34.904;2022-07-29T15:00:53;94298.06;;;36.68;69.01
70745;BME280;59284;31.390;34.904;2022-07-29T15:03:20;94296.97;;;37.09;68.76
70745;BME280;59284;31.390;34.904;2022-07-29T15:05:47;94298.09;;;35.62;71.41
70745;BME280;59284;31.390;34.904;2022-07-29T15:08:12;94290.44;;;35.84;71.41
70745;BME280;59284;31.390;34.904;2022-07-29T15:10:43;94300.22;;;35.58;74.06
70745;BME280;59284;31.390;34.904;2022-07-29T15:13:09;94296.16;;;36.15;72.26
70745;BME280;59284;31.390;34.904;2022-07-29T15:15:44;94303.59;;;35.20;78.13
70745;BME280;59284;31.390;34.904;2022-07-29T15:18:10;94272.53;;;35.48;76.31
70745;BME280;59284;31.390;34.904;2022-07-29T15:20:37;94280.41;;;35.61;77.55
70745;BME280;59284;31.390;34.904;2022-07-29T15:23:03;94298.25;;;35.11;79.83
70745;BME280;59284;31.390;34.904;2022-07-29T15:25:28;94294.06;;;35.57;78.89
70745;BME280;59284;31.390;34.904;2022-07-29T15:27:54;94291.88;;;35.47;78.60
70745;BME280;59284;31.390;34.904;2022-07-29T15:30:30;94296.75;;;35.10;81.89
70745;BME280;59284;31.390;34.904;2022-07-29T15:32:56;94291.63;;;34.19;85.37
70745;BME280;59284;31.390;34.904;2022-07-29T15:35:23;94296.72;;;34.08;87.52